Byrdstown, TN (38549)

4:28 PM CST on February 07, 2016 (GMT -0600)
Highlands @ BSF | | Change Station
CLOSE
Current Station
Personal Weather Station
Location: Jamestown, TN
Elevation: 1637 ft
Nearby Weather Stations
Active Advisory: Winter Weather Advisory

Elev 1637 ft 36.49 °N, 84.86 °W | Updated 1 minute ago

Partly Cloudy
Partly Cloudy
49.1 °F
Feels Like 46 °F
N
7.3
Wind Variable Wind from West

Today
High -- | Low -- °F
--% Chance of Precip.
Yesterday
High -- | Low -- °F
Precip. -- in
Pressure 29.97 in
Visibility 10.0 miles
Clouds Clear
Windchill 46 °F
Dew Point 17 °F
Humidity 28%
Rainfall in
Snow Depth Not available.
6:37 AM 5:12 PM
Waning Crescent, 1% visible
METAR KSRB 072215Z AUTO 23009KT 10SM CLR 11/M05 A2997 RMK
Pressure 29.97 in
Visibility 10.0 miles
Clouds Clear
Windchill 46 °F
Dew Point 17 °F
Humidity 28%
Rainfall in
Snow Depth Not available.
6:37 AM 5:12 PM
Waning Crescent, 1% visible
METAR KSRB 072215Z AUTO 23009KT 10SM CLR 11/M05 A2997 RMK

10-Day Weather Forecast

Almanac

Astronomy

Feb. 07, 2016 Rise Set
Actual Time
Civil Twilight
Nautical Twilight
Astronomical Twilight
Moon
Length of Visible Light
Length of Day
Tomorrow will be .
, % of the Moon is Illuminated

Today's Extremes

State Highs State Lows

Community

WunderPhotos

Upload Photos

1,891,318 photos uploaded!

WunderBlog® & News

Nearby

Air Quality

  Air Quality AQ Index Pollutant
Not available.

Snow Depth

Station Depth Elevation

Earthquake Activity

City Distance Mag. Time & Date
Minimum magnitude displayed is 2.5.

Coastal Water Temperatures

Place Temperature

Stations

Nearby Weather Stations

Station Location Temp. Windchill Dew Point Humidity Wind Precip. Elev Updated Type
                   

Watches & Warnings

Winter Weather Advisory
Issued: 1:07 PM CST Feb. 7, 2016 – National Weather Service

... Winter Weather Advisory in effect from noon Monday to 6 PM CST
Tuesday...

The National Weather Service in Nashville has issued a Winter
Weather Advisory for snow... which is in effect from noon Monday
to 6 PM CST Tuesday.

* Timing... noon Monday until 6 PM CST Tuesday.

* Main impact... hazardous travel conditions.

* Total snow accumulations... 1 to 2 inches with locally higher
amounts.

Precautionary/preparedness actions...

A Winter Weather Advisory for snow means that periods of snow
will cause primarily travel difficulties. Be prepared for snow
covered roads and limited visibilities... and use caution while
driving.


Boyd
01